sensor_id;sensor_type;location;lat;lon;timestamp;pressure;altitude;pressure_sealevel;temperature;humidity
706;BME280;21234;48.690;9.016;2023-05-07T00:01:49;96037.94;;;13.51;86.70
706;BME280;21234;48.690;9.016;2023-05-07T00:04:17;96036.28;;;13.40;86.90
706;BME280;21234;48.690;9.016;2023-05-07T00:06:44;96035.47;;;13.55;87.45
706;BME280;21234;48.690;9.016;2023-05-07T00:09:10;96034.91;;;13.68;85.69
706;BME280;21234;48.690;9.016;2023-05-07T00:11:37;96031.66;;;13.51;86.26
706;BME280;21234;48.690;9.016;2023-05-07T00:14:04;96034.38;;;13.40;86.28
706;BME280;21234;48.690;9.016;2023-05-07T00:16:32;96029.22;;;13.24;87.32
706;BME280;21234;48.690;9.016;2023-05-07T00:18:59;96032.19;;;13.37;85.92
706;BME280;21234;48.690;9.016;2023-05-07T00:21:25;96028.13;;;13.20;86.73
706;BME280;21234;48.690;9.016;2023-05-07T00:23:52;96023.16;;;13.11;88.02
706;BME280;21234;48.690;9.016;2023-05-07T00:26:19;96027.00;;;13.36;87.61
706;BME280;21234;48.690;9.016;2023-05-07T00:28:45;96024.31;;;13.31;87.88
706;BME280;21234;48.690;9.016;2023-05-07T00:31:12;96021.81;;;13.34;87.72
706;BME280;21234;48.690;9.016;2023-05-07T00:33:40;96024.56;;;13.19;88.64
706;BME280;21234;48.690;9.016;2023-05-07T00:36:07;96024.78;;;13.07;87.63
706;BME280;21234;48.690;9.016;2023-05-07T00:38:34;96025.34;;;13.09;88.15
706;BME280;21234;48.690;9.016;2023-05-07T00:41:00;96018.50;;;13.02;88.19
706;BME280;21234;48.690;9.016;2023-05-07T00:43:28;96009.56;;;13.27;88.70
706;BME280;21234;48.690;9.016;2023-05-07T00:45:55;96011.44;;;13.36;88.24
706;BME280;21234;48.690;9.016;2023-05-07T00:48:22;96003.00;;;13.23;87.16
706;BME280;21234;48.690;9.016;2023-05-07T00:50:51;96004.38;;;13.25;86.83
706;BME280;21234;48.690;9.016;2023-05-07T00:53:18;96007.63;;;13.48;87.08
706;BME280;21234;48.690;9.016;2023-05-07T00:55:45;96011.16;;;13.63;85.84
706;BME280;21234;48.690;9.016;2023-05-07T00:58:12;96007.63;;;13.53;86.20
706;BME280;21234;48.690;9.016;2023-05-07T01:00:38;96003.56;;;13.25;87.47
706;BME280;21234;48.690;9.016;2023-05-07T01:03:06;96002.97;;;13.12;88.29
706;BME280;21234;48.690;9.016;2023-05-07T01:05:32;96003.25;;;13.36;87.50
706;BME280;21234;48.690;9.016;2023-05-07T01:08:02;96012.25;;;13.42;87.31
706;BME280;21234;48.690;9.016;2023-05-07T01:10:29;96005.41;;;13.09;88.92
706;BME280;21234;48.690;9.016;2023-05-07T01:12:57;96005.69;;;13.02;89.67
706;BME280;21234;48.690;9.016;2023-05-07T01:15:25;96001.59;;;12.95;89.92
706;BME280;21234;48.690;9.016;2023-05-07T01:17:52;95993.41;;;13.15;89.74
706;BME280;21234;48.690;9.016;2023-05-07T01:20:19;95998.31;;;12.88;91.09
706;BME280;21234;48.690;9.016;2023-05-07T01:22:47;96000.50;;;12.96;91.23
706;BME280;21234;48.690;9.016;2023-05-07T01:25:14;96002.69;;;12.99;90.18
706;BME280;21234;48.690;9.016;2023-05-07T01:27:42;95998.03;;;13.04;90.56
706;BME280;21234;48.690;9.016;2023-05-07T01:30:09;95998.88;;;13.35;89.14
706;BME280;21234;48.690;9.016;2023-05-07T01:32:40;96000.56;;;13.26;89.35
706;BME280;21234;48.690;9.016;2023-05-07T01:35:11;96000.78;;;13.04;89.28
706;BME280;21234;48.690;9.016;2023-05-07T01:37:38;96003.25;;;12.96;90.37
706;BME280;21234;48.690;9.016;2023-05-07T01:40:08;96006.50;;;12.93;90.95
706;BME280;21234;48.690;9.016;2023-05-07T01:42:35;96005.16;;;12.95;91.43
706;BME280;21234;48.690;9.016;2023-05-07T01:45:02;96005.16;;;12.90;91.54
706;BME280;21234;48.690;9.016;2023-05-07T01:47:29;96009.53;;;12.96;90.84
706;BME280;21234;48.690;9.016;2023-05-07T01:49:57;96003.78;;;12.93;91.01
706;BME280;21234;48.690;9.016;2023-05-07T01:52:24;95999.97;;;13.09;90.71
706;BME280;21234;48.690;9.016;2023-05-07T01:54:51;95995.03;;;13.01;90.67
706;BME280;21234;48.690;9.016;2023-05-07T01:57:19;95999.38;;;12.76;91.40
706;BME280;21234;48.690;9.016;2023-05-07T01:59:46;96000.50;;;12.86;91.50
706;BME280;21234;48.690;9.016;2023-05-07T02:02:12;96002.97;;;12.92;91.56
706;BME280;21234;48.690;9.016;2023-05-07T02:04:39;96002.69;;;13.09;90.55
706;BME280;21234;48.690;9.016;2023-05-07T02:07:06;96000.78;;;13.04;90.17
706;BME280;21234;48.690;9.016;2023-05-07T02:09:32;96003.75;;;12.83;91.58
706;BME280;21234;48.690;9.016;2023-05-07T02:11:59;95998.31;;;12.83;91.87
706;BME280;21234;48.690;9.016;2023-05-07T02:14:28;95998.56;;;12.66;93.10
706;BME280;21234;48.690;9.016;2023-05-07T02:16:54;96003.72;;;12.57;93.65
706;BME280;21234;48.690;9.016;2023-05-07T02:19:21;96002.06;;;12.51;94.35
706;BME280;21234;48.690;9.016;2023-05-07T02:21:48;96003.19;;;12.65;94.43
706;BME280;21234;48.690;9.016;2023-05-07T02:24:15;96001.56;;;12.64;93.91
706;BME280;21234;48.690;9.016;2023-05-07T02:26:41;96010.19;;;12.41;94.15
706;BME280;21234;48.690;9.016;2023-05-07T02:29:08;96002.84;;;12.41;95.02
706;BME280;21234;48.690;9.016;2023-05-07T02:31:36;95998.47;;;12.40;94.87
706;BME280;21234;48.690;9.016;2023-05-07T02:34:03;96003.72;;;12.67;93.80
706;BME280;21234;48.690;9.016;2023-05-07T02:36:29;96006.44;;;12.52;93.38
706;BME280;21234;48.690;9.016;2023-05-07T02:38:56;96006.63;;;12.25;95.33
706;BME280;21234;48.690;9.016;2023-05-07T02:41:23;96001.19;;;12.30;95.19
706;BME280;21234;48.690;9.016;2023-05-07T02:43:50;96003.34;;;12.23;95.94
706;BME280;21234;48.690;9.016;2023-05-07T02:46:16;96007.47;;;12.31;95.60
706;BME280;21234;48.690;9.016;2023-05-07T02:48:44;96008.78;;;12.18;95.65
706;BME280;21234;48.690;9.016;2023-05-07T02:51:11;96004.94;;;12.14;96.70
706;BME280;21234;48.690;9.016;2023-05-07T02:53:37;96007.13;;;12.17;96.49
706;BME280;21234;48.690;9.016;2023-05-07T02:56:05;95998.94;;;12.17;96.37
706;BME280;21234;48.690;9.016;2023-05-07T02:58:32;95997.66;;;12.30;95.25
706;BME280;21234;48.690;9.016;2023-05-07T03:00:58;95990.50;;;12.14;95.93
706;BME280;21234;48.690;9.016;2023-05-07T03:03:25;95990.56;;;12.29;94.46
706;BME280;21234;48.690;9.016;2023-05-07T03:05:53;95983.97;;;12.20;95.17
706;BME280;21234;48.690;9.016;2023-05-07T03:08:20;95976.25;;;11.91;97.06
706;BME280;21234;48.690;9.016;2023-05-07T03:10:47;95970.84;;;12.06;97.33
706;BME280;21234;48.690;9.016;2023-05-07T03:13:14;95980.13;;;12.10;96.81
706;BME280;21234;48.690;9.016;2023-05-07T03:15:40;95975.41;;;11.91;97.28
706;BME280;21234;48.690;9.016;2023-05-07T03:18:07;95975.94;;;11.88;97.75
706;BME280;21234;48.690;9.016;2023-05-07T03:20:34;95974.38;;;12.02;97.46
706;BME280;21234;48.690;9.016;2023-05-07T03:23:03;95978.16;;;11.96;96.97
706;BME280;21234;48.690;9.016;2023-05-07T03:25:29;95973.56;;;12.06;95.45
706;BME280;21234;48.690;9.016;2023-05-07T03:27:56;95977.53;;;11.78;97.85
706;BME280;21234;48.690;9.016;2023-05-07T03:30:23;95980.00;;;11.80;98.54
706;BME280;21234;48.690;9.016;2023-05-07T03:32:50;95976.75;;;11.83;98.52
706;BME280;21234;48.690;9.016;2023-05-07T03:35:17;95982.91;;;11.73;99.01
706;BME280;21234;48.690;9.016;2023-05-07T03:37:43;95983.44;;;11.65;99.69
706;BME280;21234;48.690;9.016;2023-05-07T03:40:12;95986.47;;;11.74;98.29
706;BME280;21234;48.690;9.016;2023-05-07T03:42:38;95976.44;;;11.80;98.15
706;BME280;21234;48.690;9.016;2023-05-07T03:45:06;95979.03;;;12.01;97.36
706;BME280;21234;48.690;9.016;2023-05-07T03:47:33;95975.44;;;11.96;96.98
706;BME280;21234;48.690;9.016;2023-05-07T03:50:00;95980.84;;;11.86;97.33
706;BME280;21234;48.690;9.016;2023-05-07T03:52:26;95989.59;;;11.93;96.75
706;BME280;21234;48.690;9.016;2023-05-07T03:54:53;95982.75;;;11.85;96.89
706;BME280;21234;48.690;9.016;2023-05-07T03:57:21;95988.78;;;12.02;95.64
706;BME280;21234;48.690;9.016;2023-05-07T03:59:47;95980.09;;;12.05;95.01
706;BME280;21234;48.690;9.016;2023-05-07T04:02:14;95979.00;;;11.96;95.37
706;BME280;21234;48.690;9.016;2023-05-07T04:04:41;95984.16;;;12.03;95.07
706;BME280;21234;48.690;9.016;2023-05-07T04:07:07;95992.56;;;11.86;95.80
706;BME280;21234;48.690;9.016;2023-05-07T04:09:35;95988.00;;;12.02;94.96
706;BME280;21234;48.690;9.016;2023-05-07T04:12:02;95995.34;;;12.06;94.15
706;BME280;21234;48.690;9.016;2023-05-07T04:14:30;95998.91;;;12.07;94.23
706;BME280;21234;48.690;9.016;2023-05-07T04:16:57;95991.09;;;11.73;96.43
706;BME280;21234;48.690;9.016;2023-05-07T04:19:24;96001.94;;;11.63;97.54
706;BME280;21234;48.690;9.016;2023-05-07T04:21:51;95998.34;;;11.58;98.06
706;BME280;21234;48.690;9.016;2023-05-07T04:24:17;96000.06;;;11.69;97.89
706;BME280;21234;48.690;9.016;2023-05-07T04:26:44;96004.66;;;11.63;96.50
706;BME280;21234;48.690;9.016;2023-05-07T04:29:11;96006.41;;;11.42;98.16
706;BME280;21234;48.690;9.016;2023-05-07T04:31:39;96004.56;;;11.48;99.08
706;BME280;21234;48.690;9.016;2023-05-07T04:34:05;95997.81;;;11.56;99.53
706;BME280;21234;48.690;9.016;2023-05-07T04:36:32;95996.38;;;11.90;97.97
706;BME280;21234;48.690;9.016;2023-05-07T04:38:59;96001.97;;;11.68;98.50
706;BME280;21234;48.690;9.016;2023-05-07T04:41:26;95988.19;;;11.85;98.52
706;BME280;21234;48.690;9.016;2023-05-07T04:43:52;95999.66;;;11.92;97.48
706;BME280;21234;48.690;9.016;2023-05-07T04:46:19;95996.72;;;12.04;96.81
706;BME280;21234;48.690;9.016;2023-05-07T04:48:48;96003.78;;;12.05;95.95
706;BME280;21234;48.690;9.016;2023-05-07T04:51:14;95999.91;;;11.86;97.43
706;BME280;21234;48.690;9.016;2023-05-07T04:53:41;96012.03;;;11.73;98.20
706;BME280;21234;48.690;9.016;2023-05-07T04:56:08;96005.44;;;12.01;97.20
706;BME280;21234;48.690;9.016;2023-05-07T04:58:35;96001.03;;;11.90;97.66
706;BME280;21234;48.690;9.016;2023-05-07T05:01:01;96008.16;;;12.01;98.01
706;BME280;21234;48.690;9.016;2023-05-07T05:03:28;96013.63;;;12.01;98.37
706;BME280;21234;48.690;9.016;2023-05-07T05:05:56;96015.28;;;12.12;98.04
706;BME280;21234;48.690;9.016;2023-05-07T05:08:24;96011.63;;;11.86;98.03
706;BME280;21234;48.690;9.016;2023-05-07T05:10:51;96024.09;;;11.77;99.42
706;BME280;21234;48.690;9.016;2023-05-07T05:13:18;96024.69;;;11.84;99.31
706;BME280;21234;48.690;9.016;2023-05-07T05:15:44;96022.56;;;11.96;99.60
706;BME280;21234;48.690;9.016;2023-05-07T05:18:11;96033.06;;;12.25;98.81
706;BME280;21234;48.690;9.016;2023-05-07T05:20:38;96030.59;;;12.23;99.19
706;BME280;21234;48.690;9.016;2023-05-07T05:23:07;96034.72;;;12.31;97.48
706;BME280;21234;48.690;9.016;2023-05-07T05:25:34;96032.81;;;12.31;97.99
706;BME280;21234;48.690;9.016;2023-05-07T05:28:00;96044.28;;;12.43;97.03
706;BME280;21234;48.690;9.016;2023-05-07T05:30:28;96047.38;;;12.77;97.07
706;BME280;21234;48.690;9.016;2023-05-07T05:32:54;96046.09;;;12.95;95.80
706;BME280;21234;48.690;9.016;2023-05-07T05:35:21;96045.00;;;13.11;95.61
706;BME280;21234;48.690;9.016;2023-05-07T05:37:47;96051.31;;;13.27;92.30
706;BME280;21234;48.690;9.016;2023-05-07T05:40:16;96048.06;;;13.30;88.72
706;BME280;21234;48.690;9.016;2023-05-07T05:42:42;96046.97;;;13.31;89.86
706;BME280;21234;48.690;9.016;2023-05-07T05:45:10;96050.78;;;13.51;88.70
706;BME280;21234;48.690;9.016;2023-05-07T05:47:37;96045.03;;;13.57;90.17
706;BME280;21234;48.690;9.016;2023-05-07T05:50:05;96041.22;;;13.53;87.46
706;BME280;21234;48.690;9.016;2023-05-07T05:52:32;96048.31;;;13.39;88.02
706;BME280;21234;48.690;9.016;2023-05-07T05:54:59;96057.31;;;13.44;88.00
706;BME280;21234;48.690;9.016;2023-05-07T05:57:27;96061.41;;;13.37;88.82
706;BME280;21234;48.690;9.016;2023-05-07T05:59:53;96053.75;;;13.34;89.42
706;BME280;21234;48.690;9.016;2023-05-07T06:02:21;96056.78;;;13.42;88.98
706;BME280;21234;48.690;9.016;2023-05-07T06:04:47;96054.84;;;13.73;88.47
706;BME280;21234;48.690;9.016;2023-05-07T06:07:14;96056.97;;;14.07;87.05
706;BME280;21234;48.690;9.016;2023-05-07T06:09:41;96053.09;;;14.28;84.42
706;BME280;21234;48.690;9.016;2023-05-07T06:12:07;96051.38;;;14.53;83.41
706;BME280;21234;48.690;9.016;2023-05-07T06:14:35;96050.44;;;14.72;83.55
706;BME280;21234;48.690;9.016;2023-05-07T06:17:02;96053.91;;;14.93;83.88
706;BME280;21234;48.690;9.016;2023-05-07T06:19:29;96051.00;;;15.19;80.83
706;BME280;21234;48.690;9.016;2023-05-07T06:21:57;96054.84;;;15.52;77.90
706;BME280;21234;48.690;9.016;2023-05-07T06:24:24;96043.41;;;15.78;77.37
706;BME280;21234;48.690;9.016;2023-05-07T06:26:52;96051.00;;;15.87;77.26
706;BME280;21234;48.690;9.016;2023-05-07T06:29:20;96050.06;;;15.96;77.87
706;BME280;21234;48.690;9.016;2023-05-07T06:31:49;96050.78;;;16.07;77.02
706;BME280;21234;48.690;9.016;2023-05-07T06:34:16;96065.63;;;16.06;74.87
706;BME280;21234;48.690;9.016;2023-05-07T06:36:43;96052.06;;;15.91;75.18
706;BME280;21234;48.690;9.016;2023-05-07T06:39:09;96049.41;;;15.81;75.20
706;BME280;21234;48.690;9.016;2023-05-07T06:41:36;96052.75;;;15.77;75.53
706;BME280;21234;48.690;9.016;2023-05-07T06:44:04;96058.00;;;15.98;74.94
706;BME280;21234;48.690;9.016;2023-05-07T06:46:32;96053.00;;;16.29;74.48
706;BME280;21234;48.690;9.016;2023-05-07T06:49:00;96052.13;;;16.57;76.03
706;BME280;21234;48.690;9.016;2023-05-07T06:51:28;96050.00;;;16.78;74.90
706;BME280;21234;48.690;9.016;2023-05-07T06:53:55;96046.66;;;17.00;73.73
706;BME280;21234;48.690;9.016;2023-05-07T06:56:22;96044.78;;;17.52;69.98
706;BME280;21234;48.690;9.016;2023-05-07T06:58:48;96042.38;;;17.96;69.37
706;BME280;21234;48.690;9.016;2023-05-07T07:01:15;96050.47;;;18.06;67.29
706;BME280;21234;48.690;9.016;2023-05-07T07:03:42;96053.34;;;18.15;69.48
706;BME280;21234;48.690;9.016;2023-05-07T07:06:10;96053.94;;;18.26;65.72
706;BME280;21234;48.690;9.016;2023-05-07T07:08:36;96053.47;;;18.51;67.42
706;BME280;21234;48.690;9.016;2023-05-07T07:11:04;96068.66;;;18.90;65.34
706;BME280;21234;48.690;9.016;2023-05-07T07:13:30;96051.09;;;18.99;64.07
706;BME280;21234;48.690;9.016;2023-05-07T07:15:57;96053.31;;;19.11;63.56
706;BME280;21234;48.690;9.016;2023-05-07T07:18:24;96056.81;;;19.03;63.16
706;BME280;21234;48.690;9.016;2023-05-07T07:20:50;96058.22;;;19.14;62.57
706;BME280;21234;48.690;9.016;2023-05-07T07:23:18;96057.53;;;18.95;61.35
706;BME280;21234;48.690;9.016;2023-05-07T07:25:45;96058.69;;;18.80;63.41
706;BME280;21234;48.690;9.016;2023-05-07T07:28:12;96061.53;;;18.61;63.27
706;BME280;21234;48.690;9.016;2023-05-07T07:30:39;96058.34;;;18.54;64.51
706;BME280;21234;48.690;9.016;2023-05-07T07:33:06;96062.88;;;18.77;65.52
706;BME280;21234;48.690;9.016;2023-05-07T07:35:33;96061.44;;;18.66;63.33
706;BME280;21234;48.690;9.016;2023-05-07T07:37:59;96063.19;;;18.76;64.23
706;BME280;21234;48.690;9.016;2023-05-07T07:40:28;96064.28;;;18.75;67.20
706;BME280;21234;48.690;9.016;2023-05-07T07:42:56;96061.47;;;19.16;65.08
706;BME280;21234;48.690;9.016;2023-05-07T07:45:23;96056.50;;;19.40;65.97
706;BME280;21234;48.690;9.016;2023-05-07T07:47:49;96059.66;;;19.48;64.26
706;BME280;21234;48.690;9.016;2023-05-07T07:50:16;96064.59;;;19.23;62.26
706;BME280;21234;48.690;9.016;2023-05-07T07:52:43;96067.00;;;19.02;62.69
706;BME280;21234;48.690;9.016;2023-05-07T07:55:10;96073.25;;;18.67;64.09
706;BME280;21234;48.690;9.016;2023-05-07T07:57:38;96062.84;;;18.91;64.95
706;BME280;21234;48.690;9.016;2023-05-07T08:00:06;96062.78;;;19.19;63.39
706;BME280;21234;48.690;9.016;2023-05-07T08:02:33;96074.13;;;19.53;61.76
706;BME280;21234;48.690;9.016;2023-05-07T08:05:00;96068.81;;;20.01;61.86
706;BME280;21234;48.690;9.016;2023-05-07T08:07:26;96071.22;;;20.25;59.61
706;BME280;21234;48.690;9.016;2023-05-07T08:09:53;96065.44;;;20.35;58.22
706;BME280;21234;48.690;9.016;2023-05-07T08:12:20;96067.16;;;20.45;57.54
706;BME280;21234;48.690;9.016;2023-05-07T08:14:48;96068.75;;;20.86;58.25
706;BME280;21234;48.690;9.016;2023-05-07T08:17:15;96068.66;;;21.17;57.41
706;BME280;21234;48.690;9.016;2023-05-07T08:19:42;96072.47;;;21.55;55.23
706;BME280;21234;48.690;9.016;2023-05-07T08:22:09;96063.53;;;21.67;53.58
706;BME280;21234;48.690;9.016;2023-05-07T08:24:36;96067.19;;;21.10;52.66
706;BME280;21234;48.690;9.016;2023-05-07T08:27:03;96067.34;;;21.14;54.07
706;BME280;21234;48.690;9.016;2023-05-07T08:29:29;96065.53;;;21.01;53.17
706;BME280;21234;48.690;9.016;2023-05-07T08:31:57;96071.09;;;21.18;54.19
706;BME280;21234;48.690;9.016;2023-05-07T08:34:24;96067.44;;;20.74;55.04
706;BME280;21234;48.690;9.016;2023-05-07T08:36:51;96063.88;;;20.91;55.12
706;BME280;21234;48.690;9.016;2023-05-07T08:39:18;96065.56;;;21.18;54.71
706;BME280;21234;48.690;9.016;2023-05-07T08:41:45;96051.63;;;21.23;55.26
706;BME280;21234;48.690;9.016;2023-05-07T08:44:13;96061.09;;;21.57;55.98
706;BME280;21234;48.690;9.016;2023-05-07T08:46:41;96064.00;;;21.77;53.55
706;BME280;21234;48.690;9.016;2023-05-07T08:49:10;96065.97;;;22.03;54.36
706;BME280;21234;48.690;9.016;2023-05-07T08:51:37;96062.69;;;21.84;51.99
706;BME280;21234;48.690;9.016;2023-05-07T08:54:05;96065.28;;;21.97;52.51
706;BME280;21234;48.690;9.016;2023-05-07T08:56:32;96058.59;;;22.16;51.34
706;BME280;21234;48.690;9.016;2023-05-07T08:58:59;96066.25;;;22.10;51.20
706;BME280;21234;48.690;9.016;2023-05-07T09:01:26;96065.63;;;22.04;50.77
706;BME280;21234;48.690;9.016;2023-05-07T09:03:53;96066.28;;;22.01;50.90
706;BME280;21234;48.690;9.016;2023-05-07T09:06:21;96066.25;;;21.24;50.54
706;BME280;21234;48.690;9.016;2023-05-07T09:08:52;96061.41;;;21.38;52.50
706;BME280;21234;48.690;9.016;2023-05-07T09:11:22;96065.63;;;21.35;50.55
706;BME280;21234;48.690;9.016;2023-05-07T09:13:49;96067.59;;;21.43;51.46
706;BME280;21234;48.690;9.016;2023-05-07T09:16:20;96062.03;;;21.87;51.96
706;BME280;21234;48.690;9.016;2023-05-07T09:18:47;96060.56;;;21.89;50.32
706;BME280;21234;48.690;9.016;2023-05-07T09:21:15;96059.47;;;21.38;51.62
706;BME280;21234;48.690;9.016;2023-05-07T09:23:44;96059.09;;;21.92;53.13
706;BME280;21234;48.690;9.016;2023-05-07T09:26:11;96048.66;;;22.23;52.51
706;BME280;21234;48.690;9.016;2023-05-07T09:28:39;96049.22;;;22.46;52.71
706;BME280;21234;48.690;9.016;2023-05-07T09:31:06;96049.22;;;22.46;51.66
706;BME280;21234;48.690;9.016;2023-05-07T09:33:33;96054.84;;;22.11;50.51
706;BME280;21234;48.690;9.016;2023-05-07T09:36:03;96052.47;;;22.48;52.21
706;BME280;21234;48.690;9.016;2023-05-07T09:38:30;96054.53;;;22.13;51.15
706;BME280;21234;48.690;9.016;2023-05-07T09:41:06;96048.06;;;22.47;51.68
706;BME280;21234;48.690;9.016;2023-05-07T09:43:33;96057.63;;;22.11;51.08
706;BME280;21234;48.690;9.016;2023-05-07T09:46:03;96042.16;;;22.19;50.51
706;BME280;21234;48.690;9.016;2023-05-07T09:48:30;96046.94;;;22.48;49.97
706;BME280;21234;48.690;9.016;2023-05-07T09:51:02;96051.47;;;22.53;49.39
706;BME280;21234;48.690;9.016;2023-05-07T09:53:30;96040.41;;;22.91;51.82
706;BME280;21234;48.690;9.016;2023-05-07T09:55:58;96046.91;;;22.95;54.62
706;BME280;21234;48.690;9.016;2023-05-07T09:58:27;96046.88;;;23.03;51.28
706;BME280;21234;48.690;9.016;2023-05-07T10:00:56;96050.78;;;23.02;48.43
706;BME280;21234;48.690;9.016;2023-05-07T10:03:24;96035.56;;;23.08;49.71
706;BME280;21234;48.690;9.016;2023-05-07T10:05:53;96035.19;;;23.19;50.19
706;BME280;21234;48.690;9.016;2023-05-07T10:08:20;96032.47;;;23.10;48.41
706;BME280;21234;48.690;9.016;2023-05-07T10:10:48;96032.56;;;23.22;48.59
706;BME280;21234;48.690;9.016;2023-05-07T10:13:16;96020.44;;;23.06;48.18
706;BME280;21234;48.690;9.016;2023-05-07T10:15:45;96018.81;;;23.05;48.71
706;BME280;21234;48.690;9.016;2023-05-07T10:18:12;96012.66;;;22.99;49.49
706;BME280;21234;48.690;9.016;2023-05-07T10:20:39;96018.53;;;22.98;47.64
706;BME280;21234;48.690;9.016;2023-05-07T10:23:08;96016.78;;;23.14;49.13
706;BME280;21234;48.690;9.016;2023-05-07T10:25:40;96018.72;;;22.93;46.19
706;BME280;21234;48.690;9.016;2023-05-07T10:28:08;96012.13;;;23.48;48.50
706;BME280;21234;48.690;9.016;2023-05-07T10:30:44;96009.50;;;23.72;48.68
706;BME280;21234;48.690;9.016;2023-05-07T10:33:17;96011.59;;;23.75;45.43
706;BME280;21234;48.690;9.016;2023-05-07T10:35:48;96008.16;;;23.57;46.66
706;BME280;21234;48.690;9.016;2023-05-07T10:38:15;96013.69;;;23.78;48.43
706;BME280;21234;48.690;9.016;2023-05-07T10:40:42;96011.81;;;23.70;45.26
706;BME280;21234;48.690;9.016;2023-05-07T10:43:09;96006.94;;;23.67;46.70
706;BME280;21234;48.690;9.016;2023-05-07T10:45:36;96004.97;;;23.67;44.64
706;BME280;21234;48.690;9.016;2023-05-07T10:48:10;96014.22;;;23.51;46.92
706;BME280;21234;48.690;9.016;2023-05-07T10:50:39;96010.47;;;23.55;46.75
706;BME280;21234;48.690;9.016;2023-05-07T10:53:23;96010.22;;;23.81;44.82
706;BME280;21234;48.690;9.016;2023-05-07T10:56:24;96010.44;;;23.76;42.01
706;BME280;21234;48.690;9.016;2023-05-07T10:58:52;95997.41;;;23.89;41.44
706;BME280;21234;48.690;9.016;2023-05-07T11:04:24;96001.97;;;24.05;43.86
706;BME280;21234;48.690;9.016;2023-05-07T11:07:23;95999.22;;;24.18;42.86
706;BME280;21234;48.690;9.016;2023-05-07T11:09:58;95995.50;;;24.01;45.76
706;BME280;21234;48.690;9.016;2023-05-07T11:12:54;95994.09;;;23.95;43.50
706;BME280;21234;48.690;9.016;2023-05-07T11:18:14;96001.41;;;23.67;47.62
706;BME280;21234;48.690;9.016;2023-05-07T11:20:46;95991.16;;;23.17;45.49
706;BME280;21234;48.690;9.016;2023-05-07T11:26:15;96000.16;;;22.55;45.84
706;BME280;21234;48.690;9.016;2023-05-07T11:28:43;95996.84;;;22.24;46.34
706;BME280;21234;48.690;9.016;2023-05-07T11:31:10;95993.75;;;22.25;45.31
706;BME280;21234;48.690;9.016;2023-05-07T11:33:38;95990.38;;;22.11;47.14
706;BME280;21234;48.690;9.016;2023-05-07T11:36:05;95985.03;;;21.97;47.43
706;BME280;21234;48.690;9.016;2023-05-07T11:38:36;95993.03;;;21.82;48.83
706;BME280;21234;48.690;9.016;2023-05-07T11:41:04;95988.34;;;21.73;52.30
706;BME280;21234;48.690;9.016;2023-05-07T11:43:33;95993.22;;;21.68;50.05
706;BME280;21234;48.690;9.016;2023-05-07T11:46:09;95993.41;;;21.63;49.38
706;BME280;21234;48.690;9.016;2023-05-07T11:48:36;96003.31;;;21.55;49.68
706;BME280;21234;48.690;9.016;2023-05-07T11:51:04;96007.09;;;21.42;46.69
706;BME280;21234;48.690;9.016;2023-05-07T11:53:36;96009.84;;;21.33;50.72
706;BME280;21234;48.690;9.016;2023-05-07T11:56:06;96019.97;;;20.72;54.68
706;BME280;21234;48.690;9.016;2023-05-07T11:58:34;96025.63;;;20.28;57.13
706;BME280;21234;48.690;9.016;2023-05-07T12:01:01;96025.50;;;20.02;60.01
706;BME280;21234;48.690;9.016;2023-05-07T12:03:28;96036.44;;;19.62;59.28
706;BME280;21234;48.690;9.016;2023-05-07T12:05:55;96020.41;;;19.28;55.83
706;BME280;21234;48.690;9.016;2023-05-07T12:08:22;96018.75;;;18.91;49.85
706;BME280;21234;48.690;9.016;2023-05-07T12:10:49;96014.72;;;18.61;48.52
706;BME280;21234;48.690;9.016;2023-05-07T12:13:16;96014.09;;;18.23;49.41
706;BME280;21234;48.690;9.016;2023-05-07T12:15:45;96027.13;;;18.04;51.19
706;BME280;21234;48.690;9.016;2023-05-07T12:18:12;96031.16;;;17.79;53.28
706;BME280;21234;48.690;9.016;2023-05-07T12:20:39;96041.44;;;17.73;54.19
706;BME280;21234;48.690;9.016;2023-05-07T12:23:07;96037.97;;;17.49;56.86
706;BME280;21234;48.690;9.016;2023-05-07T12:25:34;96038.03;;;17.44;59.79
706;BME280;21234;48.690;9.016;2023-05-07T12:28:02;96048.00;;;17.40;61.70
706;BME280;21234;48.690;9.016;2023-05-07T12:30:30;96050.16;;;17.43;63.16
706;BME280;21234;48.690;9.016;2023-05-07T12:32:58;96058.31;;;17.48;65.01
706;BME280;21234;48.690;9.016;2023-05-07T12:35:27;96061.94;;;17.43;66.78
706;BME280;21234;48.690;9.016;2023-05-07T12:37:55;96093.13;;;17.34;66.31
706;BME280;21234;48.690;9.016;2023-05-07T12:40:22;96100.69;;;17.23;65.73
706;BME280;21234;48.690;9.016;2023-05-07T12:42:52;96115.38;;;16.95;68.68
706;BME280;21234;48.690;9.016;2023-05-07T12:45:20;96110.38;;;16.54;72.06
706;BME280;21234;48.690;9.016;2023-05-07T12:47:47;96114.13;;;16.34;72.14
706;BME280;21234;48.690;9.016;2023-05-07T12:50:15;96109.09;;;16.18;74.19
706;BME280;21234;48.690;9.016;2023-05-07T12:52:43;96111.94;;;16.07;83.16
706;BME280;21234;48.690;9.016;2023-05-07T12:55:13;96097.75;;;16.00;85.44
706;BME280;21234;48.690;9.016;2023-05-07T12:57:41;96112.38;;;15.91;85.05
706;BME280;21234;48.690;9.016;2023-05-07T13:00:09;96119.50;;;15.92;89.34
706;BME280;21234;48.690;9.016;2023-05-07T13:02:38;96110.50;;;15.86;86.33
706;BME280;21234;48.690;9.016;2023-05-07T13:05:05;96106.16;;;15.80;82.74
706;BME280;21234;48.690;9.016;2023-05-07T13:07:33;96109.97;;;15.84;84.70
706;BME280;21234;48.690;9.016;2023-05-07T13:10:00;96116.78;;;15.87;85.16
706;BME280;21234;48.690;9.016;2023-05-07T13:12:27;96119.94;;;15.70;81.65
706;BME280;21234;48.690;9.016;2023-05-07T13:14:53;96124.44;;;15.51;86.60
706;BME280;21234;48.690;9.016;2023-05-07T13:17:20;96112.91;;;15.59;89.79
706;BME280;21234;48.690;9.016;2023-05-07T13:19:47;96122.25;;;15.53;87.85
706;BME280;21234;48.690;9.016;2023-05-07T13:22:14;96133.19;;;15.58;90.74
706;BME280;21234;48.690;9.016;2023-05-07T13:24:42;96133.97;;;15.63;90.92
706;BME280;21234;48.690;9.016;2023-05-07T13:27:09;96144.59;;;15.70;95.53
706;BME280;21234;48.690;9.016;2023-05-07T13:29:35;96153.09;;;15.68;96.54
706;BME280;21234;48.690;9.016;2023-05-07T13:32:02;96155.88;;;15.63;96.55
706;BME280;21234;48.690;9.016;2023-05-07T13:34:29;96163.25;;;15.68;93.63